Time;durP1;ratioP1;P1;durP2;ratioP2;P2;SDS_P1;SDS_P2;PMS_P1;PMS_P2;Temp;Humidity;BMP_temperature;BMP_pressure;BME280_temperature;BME280_humidity;BME280_pressure;Samples;Min_cycle;Max_cycle;Signal;HPM_P1;HPM_P2
2022/09/25 00:00:57;;;;;;;1.90;1.10;;;27.30;99.90;;;;;;5032962;28;20045;-47
2022/09/25 00:03:26;;;;;;;6.50;1.23;;;27.30;99.90;;;;;;5032217;28;20055;-47
2022/09/25 00:05:58;;;;;;;2.83;1.08;;;27.30;99.90;;;;;;5032245;28;20285;-45
2022/09/25 00:08:24;;;;;;;3.03;1.77;;;27.30;99.90;;;;;;5020067;28;20482;-48
2022/09/25 00:10:50;;;;;;;4.47;1.20;;;27.30;99.90;;;;;;5021720;28;20030;-50
2022/09/25 00:13:18;;;;;;;3.72;1.20;;;27.20;99.90;;;;;;5027857;28;20532;-50
2022/09/25 00:15:56;;;;;;;2.35;1.40;;;27.20;99.90;;;;;;5028617;28;20025;-51
2022/09/25 00:21:11;;;;;;;3.83;1.95;;;27.20;99.90;;;;;;5030068;28;20456;-49
2022/09/25 00:23:37;;;;;;;2.55;0.90;;;27.20;99.90;;;;;;5037370;28;20192;-49
2022/09/25 00:26:04;;;;;;;4.72;1.80;;;27.20;99.90;;;;;;5031596;28;20024;-48
2022/09/25 00:28:31;;;;;;;2.08;1.05;;;27.20;99.90;;;;;;5031198;28;20466;-52
2022/09/25 00:30:56;;;;;;;3.72;1.15;;;27.20;99.90;;;;;;5031311;28;20037;-50
2022/09/25 00:33:23;;;;;;;5.38;1.30;;;27.20;99.90;;;;;;5030981;28;20056;-51
2022/09/25 00:35:48;;;;;;;5.40;1.42;;;27.20;99.90;;;;;;5030788;28;20029;-48
2022/09/25 00:38:14;;;;;;;2.95;1.58;;;27.20;99.90;;;;;;5031313;28;20022;-49
2022/09/25 00:40:40;;;;;;;10.10;2.13;;;27.20;99.90;;;;;;5029133;28;20128;-50
2022/09/25 00:43:13;;;;;;;4.95;1.38;;;27.10;99.90;;;;;;5027861;28;20049;-50
2022/09/25 00:45:40;;;;;;;6.47;1.38;;;27.00;99.90;;;;;;5027989;28;20405;-50
2022/09/25 00:48:12;;;;;;;3.92;1.88;;;27.00;99.90;;;;;;5030204;28;20510;-49
2022/09/25 00:50:49;;;;;;;6.43;1.52;;;27.00;99.90;;;;;;5031546;28;20048;-48
2022/09/25 00:53:25;;;;;;;10.13;2.30;;;26.90;99.90;;;;;;5018695;28;20017;-50
2022/09/25 00:55:51;;;;;;;9.15;1.48;;;26.80;99.90;;;;;;5022731;28;20044;-50
2022/09/25 00:58:21;;;;;;;8.32;2.00;;;26.80;99.90;;;;;;5031566;28;20470;-50
2022/09/25 01:00:46;;;;;;;5.57;1.92;;;26.80;99.90;;;;;;5031852;28;20512;-51
2022/09/25 01:03:13;;;;;;;5.20;2.17;;;26.80;99.90;;;;;;5031433;28;20033;-48
2022/09/25 01:05:42;;;;;;;8.13;2.03;;;26.80;99.90;;;;;;5031633;28;20017;-49
2022/09/25 01:08:12;;;;;;;5.88;1.95;;;26.80;99.90;;;;;;5031611;28;20022;-48
2022/09/25 01:10:39;;;;;;;4.78;1.92;;;26.80;99.90;;;;;;5031576;28;20675;-48
2022/09/25 01:13:05;;;;;;;7.57;2.20;;;26.80;99.90;;;;;;5031218;28;20048;-49
2022/09/25 01:15:34;;;;;;;4.40;1.60;;;26.80;99.90;;;;;;5031302;28;20028;-48
2022/09/25 01:18:34;;;;;;;4.28;1.50;;;26.80;99.90;;;;;;5031280;28;21142;-50
2022/09/25 01:21:18;;;;;;;3.55;1.60;;;26.80;99.90;;;;;;5030780;28;20104;-49
2022/09/25 01:24:08;;;;;;;2.50;1.60;;;26.80;99.90;;;;;;5031133;28;20065;-48
2022/09/25 01:26:43;;;;;;;4.05;1.60;;;26.80;99.90;;;;;;5031199;28;20025;-49
2022/09/25 01:29:17;;;;;;;5.22;1.50;;;26.80;99.90;;;;;;5031237;28;20028;-49
2022/09/25 01:31:43;;;;;;;4.65;1.70;;;26.90;99.90;;;;;;5031279;28;20052;-50
2022/09/25 01:34:27;;;;;;;5.10;2.08;;;26.90;99.90;;;;;;5031203;28;20033;-50
2022/09/25 01:37:10;;;;;;;8.15;1.80;;;26.80;99.90;;;;;;5029719;28;20021;-51
2022/09/25 01:39:44;;;;;;;6.03;2.00;;;26.80;99.90;;;;;;5029337;28;20120;-50
2022/09/25 01:42:24;;;;;;;3.92;1.83;;;26.80;99.90;;;;;;5029553;28;20021;-50
2022/09/25 01:44:58;;;;;;;4.38;1.80;;;26.80;99.90;;;;;;5029451;28;20072;-50
2022/09/25 01:47:28;;;;;;;5.63;1.63;;;26.80;99.90;;;;;;5028868;28;20018;-50
2022/09/25 01:49:59;;;;;;;4.13;1.55;;;26.80;99.90;;;;;;5029113;28;20036;-51
2022/09/25 01:52:43;;;;;;;6.82;2.08;;;26.80;99.90;;;;;;5030062;28;20013;-51
2022/09/25 01:55:37;;;;;;;3.15;1.55;;;26.80;99.90;;;;;;5030972;28;20033;-51
2022/09/25 01:58:15;;;;;;;3.95;1.52;;;26.80;99.90;;;;;;5031077;28;20075;-50
2022/09/25 02:00:49;;;;;;;6.72;1.77;;;26.70;99.90;;;;;;5031647;28;20056;-50
2022/09/25 02:03:47;;;;;;;4.18;2.00;;;26.70;99.90;;;;;;5024012;28;20033;-50
2022/09/25 02:06:18;;;;;;;2.42;1.45;;;26.70;99.90;;;;;;5028007;28;20025;-51
2022/09/25 02:08:53;;;;;;;3.83;1.60;;;26.70;99.90;;;;;;5030675;28;20014;-50
2022/09/25 02:11:19;;;;;;;2.97;1.42;;;26.60;99.90;;;;;;5029135;28;20182;-52
2022/09/25 02:14:08;;;;;;;3.45;1.73;;;26.60;99.90;;;;;;5030219;28;20032;-51
2022/09/25 02:16:42;;;;;;;5.03;1.55;;;26.60;99.90;;;;;;5017000;28;20043;-50
2022/09/25 02:22:06;;;;;;;5.43;1.30;;;26.60;99.90;;;;;;5029149;28;20044;-48
2022/09/25 02:24:53;;;;;;;5.63;1.67;;;26.60;99.90;;;;;;5028825;28;20044;-49
2022/09/25 02:27:20;;;;;;;13.20;2.25;;;26.60;99.90;;;;;;5028990;28;20458;-48
2022/09/25 02:29:46;;;;;;;6.55;1.92;;;26.60;99.90;;;;;;5029147;28;20053;-48
2022/09/25 02:32:18;;;;;;;10.60;2.22;;;26.60;99.90;;;;;;5028823;28;20496;-48
2022/09/25 02:34:44;;;;;;;13.27;2.20;;;26.50;99.90;;;;;;5028917;28;20033;-49
2022/09/25 02:37:15;;;;;;;6.70;2.03;;;26.50;99.90;;;;;;5028874;28;20036;-49
2022/09/25 02:39:46;;;;;;;6.68;2.10;;;26.40;99.90;;;;;;5028708;28;20018;-48
2022/09/25 02:42:37;;;;;;;8.55;2.30;;;26.40;99.90;;;;;;5029052;28;20033;-49
2022/09/25 02:45:07;;;;;;;10.30;2.05;;;26.30;99.90;;;;;;5030695;28;20555;-48
2022/09/25 02:47:47;;;;;;;12.68;2.30;;;26.20;99.90;;;;;;5031096;28;20034;-48
2022/09/25 02:50:31;;;;;;;13.93;2.03;;;26.10;99.90;;;;;;5030695;28;20032;-48
2022/09/25 02:53:00;;;;;;;12.02;2.15;;;26.10;99.90;;;;;;5030630;28;20436;-48
2022/09/25 02:55:41;;;;;;;10.43;2.67;;;26.00;99.90;;;;;;5031033;28;20036;-48
2022/09/25 02:58:45;;;;;;;9.18;2.40;;;25.90;99.90;;;;;;5030701;28;20053;-48
2022/09/25 03:01:15;;;;;;;20.05;3.00;;;25.80;99.90;;;;;;5034500;28;20049;-49
2022/09/25 03:03:44;;;;;;;9.55;2.60;;;25.80;99.90;;;;;;5034547;28;20060;-48
2022/09/25 03:06:10;;;;;;;11.52;2.00;;;25.80;99.90;;;;;;5033914;28;20363;-48
2022/09/25 03:08:41;;;;;;;11.82;2.45;;;25.70;99.90;;;;;;5033957;28;20036;-51
2022/09/25 03:11:08;;;;;;;6.93;2.28;;;25.70;99.90;;;;;;5033955;28;20022;-50
2022/09/25 03:13:35;;;;;;;7.72;1.88;;;25.70;99.90;;;;;;5034357;28;20033;-49
2022/09/25 03:16:03;;;;;;;9.57;2.20;;;25.60;99.90;;;;;;5033808;28;20394;-49
2022/09/25 03:18:30;;;;;;;5.45;1.88;;;25.60;99.90;;;;;;5033771;28;20044;-49
2022/09/25 03:20:57;;;;;;;6.60;2.38;;;25.60;99.90;;;;;;5033866;28;20056;-48
2022/09/25 03:23:23;;;;;;;8.33;3.20;;;25.50;99.90;;;;;;5033636;28;20037;-48
2022/09/25 03:25:49;;;;;;;7.53;2.00;;;25.50;99.90;;;;;;5033799;28;20018;-48
2022/09/25 03:28:14;;;;;;;8.30;2.22;;;25.40;99.90;;;;;;5033725;28;20033;-48
2022/09/25 03:30:41;;;;;;;12.32;2.47;;;25.40;99.90;;;;;;5033602;28;20022;-49
2022/09/25 03:33:11;;;;;;;4.40;1.85;;;25.40;99.90;;;;;;5033519;28;20022;-49
2022/09/25 03:35:38;;;;;;;4.07;1.30;;;25.30;99.90;;;;;;5029883;28;20030;-49
2022/09/25 03:38:07;;;;;;;8.98;2.30;;;25.30;99.90;;;;;;5033455;28;20025;-50
2022/09/25 03:40:33;;;;;;;8.43;2.28;;;25.30;99.90;;;;;;5033456;28;20107;-49
2022/09/25 03:42:59;;;;;;;8.02;2.40;;;25.30;99.90;;;;;;5033291;28;20030;-49
2022/09/25 03:45:24;;;;;;;11.55;3.10;;;25.30;99.90;;;;;;5032409;28;20112;-49
2022/09/25 03:47:50;;;;;;;7.63;2.10;;;25.30;99.90;;;;;;5022154;28;20032;-49
2022/09/25 03:50:16;;;;;;;8.35;1.92;;;25.20;99.90;;;;;;5018807;28;20018;-48
2022/09/25 03:52:41;;;;;;;10.80;1.90;;;25.20;99.90;;;;;;5032839;28;20362;-55
2022/09/25 03:55:07;;;;;;;5.43;2.05;;;25.10;99.90;;;;;;5032788;28;20026;-49
2022/09/25 03:57:33;;;;;;;7.88;1.95;;;25.10;99.90;;;;;;5032930;28;20108;-49
2022/09/25 04:00:01;;;;;;;9.10;1.90;;;25.10;99.90;;;;;;5043473;23;20081;-56
2022/09/25 04:02:27;;;;;;;;;;;25.10;99.90;;;;;;5032868;28;20104;-58
2022/09/25 04:04:53;;;;;;;5.53;2.05;;;25.00;99.90;;;;;;5032653;28;19913;-58
2022/09/25 04:07:21;;;;;;;5.90;1.40;;;25.00;99.90;;;;;;5015244;28;20072;-58
2022/09/25 04:09:46;;;;;;;7.38;1.88;;;25.00;99.90;;;;;;5032449;28;20025;-58
2022/09/25 04:12:12;;;;;;;5.78;1.95;;;25.00;99.90;;;;;;5032516;28;20108;-57
2022/09/25 04:14:38;;;;;;;6.30;1.80;;;25.00;99.90;;;;;;5032608;28;20018;-56
2022/09/25 04:17:04;;;;;;;5.75;1.40;;;24.90;99.90;;;;;;5000277;28;20037;-58
2022/09/25 04:19:30;;;;;;;6.15;1.50;;;24.90;99.90;;;;;;5031225;28;20029;-61
2022/09/25 04:21:55;;;;;;;5.95;2.13;;;24.80;99.90;;;;;;5032378;28;20032;-58
2022/09/25 04:27:07;;;;;;;5.00;1.50;;;24.80;99.90;;;;;;5032584;28;20036;-55
2022/09/25 04:29:33;;;;;;;4.70;1.55;;;24.70;99.90;;;;;;5032393;28;20112;-56
2022/09/25 04:34:43;;;;;;;4.45;1.33;;;24.70;99.90;;;;;;5032287;28;20515;-55
2022/09/25 04:37:09;;;;;;;10.25;2.15;;;24.70;99.90;;;;;;5032139;28;20018;-55
2022/09/25 04:39:35;;;;;;;7.57;1.88;;;24.70;99.90;;;;;;5032165;28;20108;-55
2022/09/25 04:42:00;;;;;;;6.75;1.80;;;24.70;99.90;;;;;;5031865;28;20049;-55
2022/09/25 04:44:26;;;;;;;2.40;1.50;;;24.60;99.90;;;;;;5031860;28;20034;-55
2022/09/25 04:46:52;;;;;;;9.05;1.90;;;24.60;99.90;;;;;;5032287;28;20059;-55
2022/09/25 04:49:17;;;;;;;5.30;1.25;;;24.60;99.90;;;;;;5031737;28;20040;-57
2022/09/25 04:51:43;;;;;;;7.80;1.92;;;24.60;99.90;;;;;;5031948;28;20030;-55
2022/09/25 04:54:09;;;;;;;5.60;1.83;;;24.60;99.90;;;;;;5031626;28;20017;-54
2022/09/25 04:56:35;;;;;;;8.25;2.33;;;24.60;99.90;;;;;;5031602;28;20067;-55
2022/09/25 04:59:01;;;;;;;4.18;1.80;;;24.60;99.90;;;;;;5030669;28;20025;-55
2022/09/25 05:01:27;;;;;;;5.25;1.80;;;24.60;99.90;;;;;;5031803;28;20544;-54
2022/09/25 05:03:53;;;;;;;7.40;2.75;;;24.50;99.90;;;;;;5031905;28;20095;-55
2022/09/25 05:06:19;;;;;;;6.53;1.90;;;24.60;99.90;;;;;;5031706;28;20029;-54
2022/09/25 05:08:48;;;;;;;6.78;2.03;;;24.50;99.90;;;;;;5031424;28;20026;-55
2022/09/25 05:11:14;;;;;;;3.72;1.67;;;24.50;99.90;;;;;;5031564;28;20009;-55
2022/09/25 05:13:42;;;;;;;3.22;1.52;;;24.50;99.90;;;;;;5031568;28;20056;-55
2022/09/25 05:16:08;;;;;;;5.68;1.70;;;24.50;99.90;;;;;;5031274;28;20104;-56
2022/09/25 05:18:34;;;;;;;5.03;1.52;;;24.50;99.90;;;;;;5031342;28;20067;-56
2022/09/25 05:21:03;;;;;;;4.68;1.50;;;24.50;99.90;;;;;;5030709;28;20025;-56
2022/09/25 05:23:29;;;;;;;8.02;1.85;;;24.50;99.90;;;;;;5031183;28;20068;-56
2022/09/25 05:26:01;;;;;;;6.32;1.85;;;24.50;99.90;;;;;;5031440;28;20025;-56
2022/09/25 05:28:35;;;;;;;6.50;1.73;;;24.50;99.90;;;;;;5031491;28;20045;-56
2022/09/25 05:31:02;;;;;;;8.15;1.95;;;24.50;99.90;;;;;;5031368;28;20025;-56
2022/09/25 05:33:29;;;;;;;6.43;2.53;;;24.40;99.90;;;;;;5031384;28;20371;-56
2022/09/25 05:36:00;;;;;;;5.40;1.60;;;24.40;99.90;;;;;;5031535;28;20059;-56
2022/09/25 05:38:27;;;;;;;4.88;1.80;;;24.40;99.90;;;;;;5031391;28;20018;-56
2022/09/25 05:40:54;;;;;;;14.10;1.95;;;24.40;99.90;;;;;;5031051;28;20112;-56
2022/09/25 05:43:20;;;;;;;9.00;2.20;;;24.40;99.90;;;;;;5031112;28;20033;-55
2022/09/25 05:45:56;;;;;;;9.38;1.92;;;24.40;99.90;;;;;;5031032;28;20130;-56
2022/09/25 05:48:22;;;;;;;5.47;1.95;;;24.40;99.90;;;;;;5031106;28;20052;-56
2022/09/25 05:50:52;;;;;;;6.72;1.48;;;24.40;99.90;;;;;;5031045;28;20041;-55
2022/09/25 05:53:17;;;;;;;6.85;1.92;;;24.40;99.90;;;;;;5030900;28;20037;-55
2022/09/25 05:55:50;;;;;;;4.65;1.88;;;24.40;99.90;;;;;;5031083;28;20026;-55
2022/09/25 05:58:16;;;;;;;4.93;1.50;;;24.40;99.90;;;;;;5030871;28;20036;-56
2022/09/25 06:00:42;;;;;;;7.15;1.80;;;24.40;99.90;;;;;;5030885;28;20042;-56
2022/09/25 06:03:09;;;;;;;5.22;2.13;;;24.40;99.90;;;;;;5031094;28;20518;-55
2022/09/25 06:05:35;;;;;;;9.20;3.00;;;24.40;99.90;;;;;;5030648;28;20081;-55
2022/09/25 06:08:02;;;;;;;5.57;1.88;;;24.40;99.90;;;;;;5031030;28;20518;-55
2022/09/25 06:10:27;;;;;;;8.30;2.35;;;24.40;99.90;;;;;;5031060;28;20032;-55
2022/09/25 06:13:03;;;;;;;4.55;2.00;;;24.30;99.90;;;;;;5030706;28;20386;-56
2022/09/25 06:15:35;;;;;;;5.75;1.50;;;24.30;99.90;;;;;;5031049;28;20032;-55
2022/09/25 06:18:03;;;;;;;11.65;5.70;;;24.30;99.90;;;;;;5030837;28;20454;-55
2022/09/25 06:20:29;;;;;;;7.15;3.10;;;24.30;99.90;;;;;;5030976;28;20030;-55
2022/09/25 06:22:56;;;;;;;6.13;2.63;;;24.30;99.90;;;;;;5030595;28;20470;-56
2022/09/25 06:25:25;;;;;;;6.57;2.47;;;24.30;99.90;;;;;;5030771;28;20031;-56
2022/09/25 06:27:55;;;;;;;5.80;2.17;;;24.30;99.90;;;;;;5030669;28;20033;-56
2022/09/25 06:30:26;;;;;;;9.10;3.38;;;24.30;99.90;;;;;;5030543;28;20100;-56
2022/09/25 06:33:04;;;;;;;7.32;3.05;;;24.20;99.90;;;;;;5032344;28;20030;-56
2022/09/25 06:35:30;;;;;;;11.60;2.47;;;24.20;99.90;;;;;;5034496;28;20397;-57
2022/09/25 06:37:57;;;;;;;10.35;2.47;;;24.20;99.90;;;;;;5034296;28;20017;-56
2022/09/25 06:40:26;;;;;;;14.23;2.58;;;24.20;99.90;;;;;;5013569;28;20041;-56
2022/09/25 06:42:56;;;;;;;5.88;2.08;;;24.20;99.90;;;;;;5033048;28;20018;-56
2022/09/25 06:45:22;;;;;;;8.05;1.95;;;24.20;99.90;;;;;;5034128;28;20060;-56
2022/09/25 06:47:47;;;;;;;5.72;1.88;;;24.20;99.90;;;;;;5034262;28;20064;-55
2022/09/25 06:50:13;;;;;;;8.40;2.80;;;24.20;99.90;;;;;;5016366;28;20381;-55
2022/09/25 06:52:43;;;;;;;15.93;8.48;;;24.20;99.90;;;;;;5034063;28;20030;-56
2022/09/25 06:55:09;;;;;;;13.93;7.47;;;24.10;99.90;;;;;;5033829;28;20033;-56
2022/09/25 06:57:36;;;;;;;9.55;2.95;;;24.20;99.90;;;;;;5033877;28;20026;-56
2022/09/25 07:00:06;;;;;;;6.07;2.70;;;24.20;99.90;;;;;;5033783;28;20052;-57
2022/09/25 07:05:17;;;;;;;14.85;4.82;;;24.20;99.90;;;;;;5033965;28;20319;-57
2022/09/25 07:07:44;;;;;;;7.65;2.05;;;24.20;99.90;;;;;;5033894;28;20056;-56
2022/09/25 07:10:10;;;;;;;7.65;3.20;;;24.20;99.90;;;;;;5016367;28;20029;-56
2022/09/25 07:12:38;;;;;;;10.13;7.20;;;24.20;99.90;;;;;;5033397;28;20028;-56
2022/09/25 07:15:05;;;;;;;18.35;10.02;;;24.20;99.90;;;;;;5033989;28;20087;-56
2022/09/25 07:17:30;;;;;;;8.20;2.33;;;24.20;99.90;;;;;;5015995;28;20108;-56
2022/09/25 07:19:56;;;;;;;9.25;2.47;;;24.20;99.90;;;;;;5033747;28;20418;-56
2022/09/25 07:22:22;;;;;;;8.32;2.30;;;24.20;99.90;;;;;;5033458;28;20029;-56
2022/09/25 07:24:48;;;;;;;10.25;2.90;;;24.30;99.90;;;;;;5033440;28;20068;-56
2022/09/25 07:27:13;;;;;;;7.32;2.08;;;24.20;99.90;;;;;;5033397;28;20057;-57
2022/09/25 07:29:39;;;;;;;10.85;3.70;;;24.20;99.90;;;;;;5033273;28;20376;-56
2022/09/25 07:32:05;;;;;;;18.35;2.85;;;24.20;99.90;;;;;;5033555;28;20521;-57
2022/09/25 07:34:33;;;;;;;4.78;2.25;;;24.20;99.90;;;;;;5033235;28;20027;-56
2022/09/25 07:36:58;;;;;;;8.43;2.00;;;24.20;99.90;;;;;;5033318;28;20049;-55
2022/09/25 07:39:24;;;;;;;6.20;1.92;;;24.20;99.90;;;;;;5033330;28;20492;-56
2022/09/25 07:41:53;;;;;;;5.03;1.95;;;24.20;99.90;;;;;;5033116;28;20033;-56
2022/09/25 07:44:19;;;;;;;10.52;2.00;;;24.20;99.90;;;;;;5032195;28;20098;-56
2022/09/25 07:46:45;;;;;;;10.23;3.15;;;24.20;99.90;;;;;;5032902;28;20052;-57
2022/09/25 07:49:11;;;;;;;4.65;1.80;;;24.20;99.90;;;;;;5032888;28;20049;-57
2022/09/25 07:51:38;;;;;;;7.28;1.85;;;24.20;99.90;;;;;;5033173;28;20362;-57
2022/09/25 07:54:03;;;;;;;10.23;2.70;;;24.20;99.90;;;;;;5015433;28;20021;-57
2022/09/25 07:56:29;;;;;;;5.63;2.20;;;24.20;99.90;;;;;;5032751;28;20427;-57
2022/09/25 07:58:55;;;;;;;6.90;1.63;;;24.30;99.90;;;;;;5032857;28;20028;-57
2022/09/25 08:01:20;;;;;;;7.10;1.95;;;24.30;99.90;;;;;;5032577;28;20084;-57
2022/09/25 08:03:48;;;;;;;5.07;2.47;;;24.30;99.90;;;;;;5032505;28;20025;-57
2022/09/25 08:06:14;;;;;;;15.40;2.30;;;24.30;99.90;;;;;;5032671;28;20560;-57
2022/09/25 08:08:41;;;;;;;7.22;1.88;;;24.30;99.90;;;;;;5032348;28;20141;-57
2022/09/25 08:11:12;;;;;;;9.65;2.83;;;24.30;99.90;;;;;;5032358;28;20148;-57
2022/09/25 08:13:39;;;;;;;9.48;1.95;;;24.40;99.90;;;;;;5032576;28;20025;-57
2022/09/25 08:16:10;;;;;;;6.47;1.90;;;24.40;99.90;;;;;;5032442;28;20026;-57
2022/09/25 08:18:40;;;;;;;7.15;2.60;;;24.40;99.90;;;;;;5032538;28;20023;-57
2022/09/25 08:21:06;;;;;;;7.38;2.00;;;24.40;99.90;;;;;;5032385;28;20109;-57
2022/09/25 08:23:32;;;;;;;5.60;1.70;;;24.40;99.90;;;;;;5031751;28;20033;-57
2022/09/25 08:25:58;;;;;;;7.88;1.98;;;24.40;99.90;;;;;;5031954;28;20108;-57
2022/09/25 08:28:24;;;;;;;5.70;2.03;;;24.50;99.90;;;;;;5032049;28;20026;-57
2022/09/25 08:30:50;;;;;;;6.60;2.25;;;24.50;99.90;;;;;;5031799;28;20462;-57
2022/09/25 08:33:16;;;;;;;7.85;3.20;;;24.50;99.90;;;;;;5032022;28;20030;-57
2022/09/25 08:35:42;;;;;;;11.98;2.33;;;24.50;99.90;;;;;;5031995;28;20135;-57
2022/09/25 08:38:11;;;;;;;12.93;2.10;;;24.50;99.90;;;;;;5032233;28;20049;-57
2022/09/25 08:40:50;;;;;;;14.77;5.45;;;24.60;99.90;;;;;;5032195;28;20055;-57
2022/09/25 08:43:20;;;;;;;13.35;3.80;;;24.60;99.90;;;;;;5031844;28;20473;-57
2022/09/25 08:51:27;;;;;;;16.00;2.88;;;24.70;99.90;;;;;;5032061;28;20349;-57
2022/09/25 08:53:52;;;;;;;13.15;2.60;;;24.80;99.90;;;;;;5031712;28;20045;-57
2022/09/25 08:56:18;;;;;;;9.00;2.40;;;24.80;99.90;;;;;;5013908;28;20068;-57
2022/09/25 08:59:15;;;;;;;9.90;2.45;;;24.90;99.90;;;;;;5013690;28;20017;-58
2022/09/25 09:01:52;;;;;;;9.00;2.65;;;24.90;99.90;;;;;;5031527;28;20102;-57
2022/09/25 09:04:42;;;;;;;10.10;2.25;;;25.00;99.90;;;;;;5031612;28;20484;-58
2022/09/25 09:07:13;;;;;;;6.53;2.10;;;25.00;99.90;;;;;;5031690;28;20047;-57
2022/09/25 09:09:42;;;;;;;9.63;1.90;;;25.10;99.90;;;;;;5031747;28;20029;-57
2022/09/25 09:12:14;;;;;;;7.18;3.03;;;25.10;99.90;;;;;;5031449;28;20057;-57
2022/09/25 09:14:44;;;;;;;14.07;2.55;;;25.20;99.90;;;;;;5031663;28;20603;-57
2022/09/25 09:17:18;;;;;;;7.93;2.42;;;25.20;99.90;;;;;;5031580;28;20026;-57
2022/09/25 09:19:55;;;;;;;6.40;2.08;;;25.30;99.90;;;;;;5031453;28;20028;-57
2022/09/25 09:22:31;;;;;;;5.05;2.05;;;25.30;99.90;;;;;;5031589;28;20022;-57
2022/09/25 09:24:59;;;;;;;5.28;1.83;;;25.30;99.90;;;;;;5031296;28;20033;-57
2022/09/25 09:27:33;;;;;;;10.75;2.33;;;25.40;99.90;;;;;;5031106;28;20041;-57
2022/09/25 09:30:10;;;;;;;10.15;1.98;;;25.40;99.90;;;;;;5031204;28;20032;-57
2022/09/25 09:32:42;;;;;;;5.43;1.98;;;25.50;99.90;;;;;;5031359;28;20029;-56
2022/09/25 09:35:20;;;;;;;9.05;2.45;;;25.50;99.90;;;;;;5031142;28;20037;-57
2022/09/25 09:37:55;;;;;;;9.32;2.42;;;25.60;99.90;;;;;;5031180;28;20106;-57
2022/09/25 09:40:42;;;;;;;7.95;2.63;;;25.60;99.90;;;;;;5030968;28;20067;-57
2022/09/25 09:43:35;;;;;;;12.18;2.25;;;25.60;99.90;;;;;;5031129;28;20209;-57
2022/09/25 09:46:39;;;;;;;14.23;7.80;;;25.60;99.90;;;;;;5028387;28;20036;-57
2022/09/25 09:49:08;;;;;;;16.88;8.48;;;25.70;99.90;;;;;;5031118;28;20545;-57
2022/09/25 09:51:42;;;;;;;15.02;6.85;;;25.70;99.90;;;;;;5031001;28;20021;-58
2022/09/25 09:54:19;;;;;;;17.98;8.82;;;25.70;99.90;;;;;;5031030;28;20060;-56
2022/09/25 09:56:50;;;;;;;11.30;6.53;;;25.70;99.90;;;;;;5030846;28;20053;-56
2022/09/25 09:59:42;;;;;;;18.27;8.43;;;25.80;99.90;;;;;;5030840;28;20025;-55
2022/09/25 10:02:43;;;;;;;12.82;6.78;;;25.80;99.90;;;;;;5026949;28;20071;-57
2022/09/25 10:05:26;;;;;;;10.15;3.58;;;25.90;99.90;;;;;;5027644;28;20152;-57
2022/09/25 10:07:53;;;;;;;10.15;3.00;;;25.90;99.90;;;;;;5032453;28;20021;-57
2022/09/25 10:10:21;;;;;;;14.13;3.17;;;25.90;99.90;;;;;;5034895;28;20083;-57
2022/09/25 10:12:50;;;;;;;19.38;4.20;;;26.00;99.90;;;;;;5034797;28;20032;-57
2022/09/25 10:15:39;;;;;;;12.98;6.72;;;26.00;99.90;;;;;;5034885;28;20028;-57
2022/09/25 10:18:06;;;;;;;12.63;5.40;;;26.00;99.90;;;;;;5034584;28;20063;-56
2022/09/25 10:20:58;;;;;;;18.90;8.60;;;26.00;99.90;;;;;;5034809;28;20029;-57
2022/09/25 10:23:51;;;;;;;10.60;4.88;;;26.10;99.90;;;;;;5034550;28;20029;-57
2022/09/25 10:26:36;;;;;;;8.75;4.60;;;26.10;99.90;;;;;;5034790;28;20021;-56
2022/09/25 10:29:20;;;;;;;12.48;5.25;;;26.10;99.90;;;;;;5034484;28;20159;-57
2022/09/25 10:31:47;;;;;;;14.55;5.97;;;26.10;99.90;;;;;;5034744;28;20017;-56
2022/09/25 10:34:15;;;;;;;11.57;3.47;;;26.10;99.90;;;;;;5031812;28;20447;-56
2022/09/25 10:36:44;;;;;;;11.20;3.40;;;26.10;99.90;;;;;;5014907;28;20523;-57
2022/09/25 10:39:32;;;;;;;10.00;2.78;;;26.10;99.90;;;;;;5015549;28;20029;-56
2022/09/25 10:41:58;;;;;;;;;;;26.20;99.90;;;;;;5019725;28;20494;-57
2022/09/25 10:44:35;;;;;;;13.10;4.47;;;26.20;99.90;;;;;;5016804;28;20384;-56
2022/09/25 10:50:15;;;;;;;10.80;2.78;;;26.30;99.90;;;;;;5013929;28;20064;-56
2022/09/25 10:53:02;;;;;;;;;;;26.40;99.90;;;;;;5014701;28;20050;-56
2022/09/25 10:55:30;;;;;;;10.68;3.22;;;26.40;99.90;;;;;;5033924;28;19909;-56
2022/09/25 10:58:08;;;;;;;15.80;4.43;;;26.40;99.90;;;;;;5033251;28;20057;-59
2022/09/25 11:00:42;;;;;;;15.90;6.20;;;26.40;99.90;;;;;;5014400;28;20049;-55
2022/09/25 11:03:20;;;;;;;15.02;5.22;;;26.40;99.90;;;;;;5013379;28;20034;-54
2022/09/25 11:05:59;;;;;;;15.23;5.28;;;26.40;99.90;;;;;;5013664;28;20200;-54
2022/09/25 11:08:30;;;;;;;15.32;8.68;;;26.40;99.90;;;;;;5017573;28;20434;-57
2022/09/25 11:10:58;;;;;;;13.57;3.95;;;26.40;99.90;;;;;;5031709;28;20382;-56
2022/09/25 11:13:45;;;;;;;14.85;3.22;;;26.40;99.90;;;;;;5014044;28;20018;-55
2022/09/25 11:16:10;;;;;;;14.83;4.23;;;26.40;99.90;;;;;;5023477;28;20105;-56
2022/09/25 11:18:41;;;;;;;11.27;3.08;;;26.40;99.90;;;;;;5012475;28;20343;-56
2022/09/25 11:21:32;;;;;;;12.13;3.88;;;26.40;99.90;;;;;;5012980;28;20040;-55
2022/09/25 11:24:05;;;;;;;12.57;5.90;;;26.40;99.90;;;;;;5008969;28;20050;-51
2022/09/25 11:26:43;;;;;;;14.20;5.05;;;26.30;99.90;;;;;;5020588;28;20025;-55
2022/09/25 11:29:36;;;;;;;13.90;3.35;;;26.30;99.90;;;;;;5033472;28;20057;-56
2022/09/25 11:32:25;;;;;;;13.25;3.50;;;26.30;99.90;;;;;;5033478;28;20022;-55
2022/09/25 11:34:56;;;;;;;8.93;2.42;;;26.30;99.90;;;;;;5025039;28;20125;-55
2022/09/25 11:37:42;;;;;;;12.65;3.92;;;26.20;99.90;;;;;;5032436;28;20021;-56
2022/09/25 11:44:00;;;;;;;16.40;4.93;;;26.20;99.90;;;;;;5029185;28;20099;-55
2022/09/25 11:46:34;;;;;;;20.65;7.80;;;26.20;99.90;;;;;;5032736;28;20036;-58
2022/09/25 11:49:26;;;;;;;23.23;11.15;;;26.20;99.90;;;;;;5032667;28;20026;-53
2022/09/25 11:52:15;;;;;;;21.88;9.38;;;26.20;99.90;;;;;;5032967;28;20032;-55
2022/09/25 11:54:52;;;;;;;19.45;6.55;;;26.20;99.90;;;;;;5032465;28;20026;-56
2022/09/25 11:57:38;;;;;;;27.42;8.43;;;26.20;99.90;;;;;;5033238;28;20030;-58
2022/09/25 12:00:07;;;;;;;15.88;6.30;;;26.20;99.90;;;;;;5025902;28;20474;-58
2022/09/25 12:02:51;;;;;;;17.52;4.57;;;26.20;99.90;;;;;;5027028;28;20401;-57
2022/09/25 12:05:44;;;;;;;22.23;8.77;;;26.20;99.90;;;;;;5027206;28;20489;-53
2022/09/25 12:08:28;;;;;;;12.95;6.35;;;26.10;99.90;;;;;;5024770;28;20113;-58
2022/09/25 12:11:13;;;;;;;16.45;6.45;;;26.20;99.90;;;;;;5029214;28;20028;-57
2022/09/25 12:14:08;;;;;;;11.38;3.90;;;26.20;99.90;;;;;;5011497;28;20175;-58
2022/09/25 12:17:13;;;;;;;14.15;5.03;;;26.20;99.90;;;;;;5021612;28;20393;-58
2022/09/25 12:19:56;;;;;;;19.52;8.38;;;26.30;99.90;;;;;;5022115;28;20068;-57
2022/09/25 12:22:31;;;;;;;19.20;5.93;;;26.30;99.90;;;;;;5026280;28;20308;-55
2022/09/25 12:25:08;;;;;;;13.55;5.53;;;26.30;99.90;;;;;;5031164;28;20034;-59
2022/09/25 12:27:41;;;;;;;21.38;6.22;;;26.40;99.90;;;;;;5032353;28;20030;-57
2022/09/25 12:30:13;;;;;;;16.33;4.97;;;26.40;99.90;;;;;;5024896;28;20030;-60
2022/09/25 12:32:56;;;;;;;17.33;5.53;;;26.50;99.90;;;;;;5018616;28;20033;-57
2022/09/25 12:35:38;;;;;;;8.50;3.42;;;26.50;99.90;;;;;;5032164;28;20416;-60
2022/09/25 12:38:21;;;;;;;12.18;3.10;;;26.50;99.90;;;;;;5029782;28;20025;-58
2022/09/25 12:41:03;;;;;;;11.30;3.00;;;26.50;99.90;;;;;;5025945;28;20032;-59
2022/09/25 12:43:43;;;;;;;23.95;12.05;;;26.60;99.90;;;;;;5031614;28;20045;-60
2022/09/25 12:46:38;;;;;;;10.07;3.90;;;26.70;99.90;;;;;;5031491;28;20024;-60
2022/09/25 12:49:30;;;;;;;10.70;3.72;;;26.80;99.90;;;;;;5026284;28;20034;-60
2022/09/25 12:52:06;;;;;;;14.20;4.50;;;26.80;99.90;;;;;;5031806;28;20508;-60
2022/09/25 12:54:58;;;;;;;15.30;5.65;;;26.90;99.90;;;;;;5031227;28;20034;-60
2022/09/25 12:57:31;;;;;;;14.15;3.65;;;27.00;99.90;;;;;;5021559;28;20022;-60
2022/09/25 13:00:28;;;;;;;12.65;3.42;;;27.00;99.90;;;;;;5012776;28;20034;-59
2022/09/25 13:03:00;;;;;;;15.70;3.38;;;27.00;99.90;;;;;;5024207;28;20037;-59
2022/09/25 13:05:33;;;;;;;23.70;5.13;;;27.10;99.90;;;;;;5031037;28;20398;-58
2022/09/25 13:08:19;;;;;;;12.07;2.20;;;27.10;99.90;;;;;;5030801;28;20024;-60
2022/09/25 13:10:47;;;;;;;14.10;3.80;;;27.10;99.90;;;;;;5030921;28;20021;-60
2022/09/25 13:13:18;;;;;;;11.02;3.25;;;27.20;99.90;;;;;;5031415;28;20382;-56
2022/09/25 13:15:51;;;;;;;11.60;2.88;;;27.20;99.90;;;;;;5031165;28;20025;-56
2022/09/25 13:18:20;;;;;;;10.30;3.00;;;27.20;99.90;;;;;;5031525;28;20049;-53
2022/09/25 13:20:49;;;;;;;13.73;3.13;;;27.30;99.90;;;;;;5031321;28;20068;-50
2022/09/25 13:23:40;;;;;;;18.42;3.25;;;27.30;99.90;;;;;;5022040;28;20025;-55
2022/09/25 13:26:17;;;;;;;10.90;4.13;;;27.30;99.90;;;;;;5018127;28;20025;-55
2022/09/25 13:28:57;;;;;;;12.23;3.30;;;27.40;99.90;;;;;;5028877;28;20045;-54
2022/09/25 13:31:29;;;;;;;8.93;2.55;;;27.40;99.90;;;;;;5029896;28;20033;-55
2022/09/25 13:34:08;;;;;;;11.15;3.65;;;27.40;99.90;;;;;;5029666;28;20017;-54
2022/09/25 13:36:39;;;;;;;16.58;3.42;;;27.40;99.90;;;;;;5026743;28;20032;-54